Alkol, West Virginia
Current Conditions -  °F | °C
As of 6:54 PM on Friday 24 Oct 2014 (Local Time) from KCRW Reporting Station
Clear Clear  
Wind Chill: 14°   Ceiling: Unl
Heat Index: 14°   Visibility: 10mi
Dew Point:   Wind: 3mph
Humidity: 55%   Direction: 220°SW
Pressure: 30.04"   Gusts: NA
Location:  38.16°N, 81.92°W
Report Text: KCRW 242254Z 22003KT 10SM CLR 14/05 A3004 RMK AO2 SLP172 T01390050
Loading
Personal Weather Stations






























Interactive Weather Map
Tropical Storm Tracking
New forecast layout! Learn more

10-Day Weather Forecast

Advertisements
Track Severe Weather on mobile